sensor_id;sensor_type;location;lat;lon;timestamp;temperature;humidity
26537;DHT22;14204;51.262;5.488;2023-07-08T00:01:55;22.30;99.90
26537;DHT22;14204;51.262;5.488;2023-07-08T00:04:21;22.30;99.90
26537;DHT22;14204;51.262;5.488;2023-07-08T00:06:48;22.30;99.90
26537;DHT22;14204;51.262;5.488;2023-07-08T00:09:13;22.30;99.90
26537;DHT22;14204;51.262;5.488;2023-07-08T00:11:39;22.30;99.90
26537;DHT22;14204;51.262;5.488;2023-07-08T00:14:05;22.30;99.90
26537;DHT22;14204;51.262;5.488;2023-07-08T00:16:30;22.20;99.90
26537;DHT22;14204;51.262;5.488;2023-07-08T00:18:56;22.30;99.90
26537;DHT22;14204;51.262;5.488;2023-07-08T00:21:21;22.20;99.90
26537;DHT22;14204;51.262;5.488;2023-07-08T00:23:49;22.20;99.90
26537;DHT22;14204;51.262;5.488;2023-07-08T00:26:24;22.20;99.90
26537;DHT22;14204;51.262;5.488;2023-07-08T00:28:51;22.10;99.90
26537;DHT22;14204;51.262;5.488;2023-07-08T00:31:16;22.20;99.90
26537;DHT22;14204;51.262;5.488;2023-07-08T00:33:42;22.10;99.90
26537;DHT22;14204;51.262;5.488;2023-07-08T00:36:12;22.10;99.90
26537;DHT22;14204;51.262;5.488;2023-07-08T00:38:39;22.10;99.90
26537;DHT22;14204;51.262;5.488;2023-07-08T00:43:56;22.00;99.90
26537;DHT22;14204;51.262;5.488;2023-07-08T00:51:51;21.90;99.90
26537;DHT22;14204;51.262;5.488;2023-07-08T00:54:19;21.90;99.90
26537;DHT22;14204;51.262;5.488;2023-07-08T00:59:34;21.90;99.90
26537;DHT22;14204;51.262;5.488;2023-07-08T01:02:05;21.80;99.90
26537;DHT22;14204;51.262;5.488;2023-07-08T01:05:01;21.80;99.90
26537;DHT22;14204;51.262;5.488;2023-07-08T01:07:30;21.80;99.90
26537;DHT22;14204;51.262;5.488;2023-07-08T01:10:03;21.80;99.90
26537;DHT22;14204;51.262;5.488;2023-07-08T01:12:37;21.80;99.90
26537;DHT22;14204;51.262;5.488;2023-07-08T01:15:07;21.80;99.90
26537;DHT22;14204;51.262;5.488;2023-07-08T01:17:33;21.70;99.90
26537;DHT22;14204;51.262;5.488;2023-07-08T01:20:00;21.70;99.90
26537;DHT22;14204;51.262;5.488;2023-07-08T01:22:26;21.70;99.90
26537;DHT22;14204;51.262;5.488;2023-07-08T01:24:58;21.60;99.90
26537;DHT22;14204;51.262;5.488;2023-07-08T01:27:29;21.60;99.90
26537;DHT22;14204;51.262;5.488;2023-07-08T01:29:56;21.60;99.90
26537;DHT22;14204;51.262;5.488;2023-07-08T01:32:22;21.60;99.90
26537;DHT22;14204;51.262;5.488;2023-07-08T01:34:48;21.50;99.90
26537;DHT22;14204;51.262;5.488;2023-07-08T01:37:44;21.40;99.90
26537;DHT22;14204;51.262;5.488;2023-07-08T01:40:32;21.50;99.90
26537;DHT22;14204;51.262;5.488;2023-07-08T01:43:00;21.40;99.90
26537;DHT22;14204;51.262;5.488;2023-07-08T01:45:28;21.40;99.90
26537;DHT22;14204;51.262;5.488;2023-07-08T01:48:11;21.30;99.90
26537;DHT22;14204;51.262;5.488;2023-07-08T01:50:42;21.30;99.90
26537;DHT22;14204;51.262;5.488;2023-07-08T01:53:12;21.20;99.90
26537;DHT22;14204;51.262;5.488;2023-07-08T01:55:39;21.20;99.90
26537;DHT22;14204;51.262;5.488;2023-07-08T01:58:05;21.20;99.90
26537;DHT22;14204;51.262;5.488;2023-07-08T02:00:30;21.20;99.90
26537;DHT22;14204;51.262;5.488;2023-07-08T02:02:56;21.10;99.90
26537;DHT22;14204;51.262;5.488;2023-07-08T02:05:23;21.10;99.90
26537;DHT22;14204;51.262;5.488;2023-07-08T02:07:48;21.10;99.90
26537;DHT22;14204;51.262;5.488;2023-07-08T02:10:14;21.10;99.90
26537;DHT22;14204;51.262;5.488;2023-07-08T02:12:40;21.00;99.90
26537;DHT22;14204;51.262;5.488;2023-07-08T02:15:07;20.90;99.90
26537;DHT22;14204;51.262;5.488;2023-07-08T02:17:33;21.00;99.90
26537;DHT22;14204;51.262;5.488;2023-07-08T02:19:59;20.90;99.90
26537;DHT22;14204;51.262;5.488;2023-07-08T02:22:24;20.90;99.90
26537;DHT22;14204;51.262;5.488;2023-07-08T02:24:50;20.90;99.90
26537;DHT22;14204;51.262;5.488;2023-07-08T02:27:16;20.90;99.90
26537;DHT22;14204;51.262;5.488;2023-07-08T02:29:42;20.80;99.90
26537;DHT22;14204;51.262;5.488;2023-07-08T02:32:09;20.80;99.90
26537;DHT22;14204;51.262;5.488;2023-07-08T02:34:36;20.80;99.90
26537;DHT22;14204;51.262;5.488;2023-07-08T02:37:01;20.80;99.90
26537;DHT22;14204;51.262;5.488;2023-07-08T02:39:27;20.70;99.90
26537;DHT22;14204;51.262;5.488;2023-07-08T02:41:53;20.70;99.90
26537;DHT22;14204;51.262;5.488;2023-07-08T02:44:19;20.70;99.90
26537;DHT22;14204;51.262;5.488;2023-07-08T02:46:44;20.60;99.90
26537;DHT22;14204;51.262;5.488;2023-07-08T02:49:10;20.50;99.90
26537;DHT22;14204;51.262;5.488;2023-07-08T02:51:36;20.50;99.90
26537;DHT22;14204;51.262;5.488;2023-07-08T02:54:01;20.50;99.90
26537;DHT22;14204;51.262;5.488;2023-07-08T02:56:27;20.50;99.90
26537;DHT22;14204;51.262;5.488;2023-07-08T02:58:53;20.40;99.90
26537;DHT22;14204;51.262;5.488;2023-07-08T03:01:18;20.40;99.90
26537;DHT22;14204;51.262;5.488;2023-07-08T03:03:48;20.40;99.90
26537;DHT22;14204;51.262;5.488;2023-07-08T03:06:14;20.40;99.90
26537;DHT22;14204;51.262;5.488;2023-07-08T03:08:40;20.40;99.90
26537;DHT22;14204;51.262;5.488;2023-07-08T03:11:07;20.30;99.90
26537;DHT22;14204;51.262;5.488;2023-07-08T03:13:34;20.30;99.90
26537;DHT22;14204;51.262;5.488;2023-07-08T03:16:03;20.30;99.90
26537;DHT22;14204;51.262;5.488;2023-07-08T03:18:34;20.30;99.90
26537;DHT22;14204;51.262;5.488;2023-07-08T03:21:04;20.20;99.90
26537;DHT22;14204;51.262;5.488;2023-07-08T03:23:31;20.10;99.90
26537;DHT22;14204;51.262;5.488;2023-07-08T03:25:56;20.00;99.90
26537;DHT22;14204;51.262;5.488;2023-07-08T03:28:22;20.10;99.90
26537;DHT22;14204;51.262;5.488;2023-07-08T03:30:52;20.10;99.90
26537;DHT22;14204;51.262;5.488;2023-07-08T03:33:17;20.10;99.90
26537;DHT22;14204;51.262;5.488;2023-07-08T03:35:43;20.10;99.90
26537;DHT22;14204;51.262;5.488;2023-07-08T03:38:09;20.00;99.90
26537;DHT22;14204;51.262;5.488;2023-07-08T03:40:34;20.00;99.90
26537;DHT22;14204;51.262;5.488;2023-07-08T03:43:00;20.00;99.90
26537;DHT22;14204;51.262;5.488;2023-07-08T03:45:26;20.00;99.90
26537;DHT22;14204;51.262;5.488;2023-07-08T03:47:52;20.00;99.90
26537;DHT22;14204;51.262;5.488;2023-07-08T03:52:46;20.00;99.90
26537;DHT22;14204;51.262;5.488;2023-07-08T03:55:12;20.00;99.90
26537;DHT22;14204;51.262;5.488;2023-07-08T03:57:38;19.80;99.90
26537;DHT22;14204;51.262;5.488;2023-07-08T04:00:04;19.90;99.90
26537;DHT22;14204;51.262;5.488;2023-07-08T04:02:31;19.90;99.90
26537;DHT22;14204;51.262;5.488;2023-07-08T04:04:57;19.80;99.90
26537;DHT22;14204;51.262;5.488;2023-07-08T04:07:23;19.80;99.90
26537;DHT22;14204;51.262;5.488;2023-07-08T04:09:48;19.80;99.90
26537;DHT22;14204;51.262;5.488;2023-07-08T04:12:16;19.70;99.90
26537;DHT22;14204;51.262;5.488;2023-07-08T04:14:41;19.70;99.90
26537;DHT22;14204;51.262;5.488;2023-07-08T04:17:08;19.70;99.90
26537;DHT22;14204;51.262;5.488;2023-07-08T04:19:34;19.70;99.90
26537;DHT22;14204;51.262;5.488;2023-07-08T04:22:02;19.70;99.90
26537;DHT22;14204;51.262;5.488;2023-07-08T04:24:27;19.70;99.90
26537;DHT22;14204;51.262;5.488;2023-07-08T04:26:53;19.60;99.90
26537;DHT22;14204;51.262;5.488;2023-07-08T04:29:21;19.70;99.90
26537;DHT22;14204;51.262;5.488;2023-07-08T04:31:47;19.70;99.90
26537;DHT22;14204;51.262;5.488;2023-07-08T04:34:14;19.70;99.90
26537;DHT22;14204;51.262;5.488;2023-07-08T04:36:40;19.70;99.90
26537;DHT22;14204;51.262;5.488;2023-07-08T04:39:07;19.60;99.90
26537;DHT22;14204;51.262;5.488;2023-07-08T04:41:35;19.60;99.90
26537;DHT22;14204;51.262;5.488;2023-07-08T04:44:08;19.70;99.90
26537;DHT22;14204;51.262;5.488;2023-07-08T04:46:42;19.70;99.90
26537;DHT22;14204;51.262;5.488;2023-07-08T04:49:10;19.70;99.90
26537;DHT22;14204;51.262;5.488;2023-07-08T04:51:40;19.70;99.90
26537;DHT22;14204;51.262;5.488;2023-07-08T04:54:06;19.80;99.90
26537;DHT22;14204;51.262;5.488;2023-07-08T04:56:37;19.80;99.90
26537;DHT22;14204;51.262;5.488;2023-07-08T04:59:03;19.80;99.90
26537;DHT22;14204;51.262;5.488;2023-07-08T05:01:29;19.70;99.90
26537;DHT22;14204;51.262;5.488;2023-07-08T05:03:55;19.70;99.90
26537;DHT22;14204;51.262;5.488;2023-07-08T05:06:20;19.70;99.90
26537;DHT22;14204;51.262;5.488;2023-07-08T05:08:46;19.70;99.90
26537;DHT22;14204;51.262;5.488;2023-07-08T05:11:12;19.70;99.90
26537;DHT22;14204;51.262;5.488;2023-07-08T05:13:37;19.80;99.90
26537;DHT22;14204;51.262;5.488;2023-07-08T05:16:03;19.80;99.90
26537;DHT22;14204;51.262;5.488;2023-07-08T05:18:29;19.90;99.90
26537;DHT22;14204;51.262;5.488;2023-07-08T05:20:55;19.90;99.90
26537;DHT22;14204;51.262;5.488;2023-07-08T05:23:21;19.80;99.90
26537;DHT22;14204;51.262;5.488;2023-07-08T05:25:47;19.90;99.90
26537;DHT22;14204;51.262;5.488;2023-07-08T05:28:13;19.90;99.90
26537;DHT22;14204;51.262;5.488;2023-07-08T05:30:40;20.00;99.90
26537;DHT22;14204;51.262;5.488;2023-07-08T05:33:06;20.00;99.90
26537;DHT22;14204;51.262;5.488;2023-07-08T05:35:32;20.00;99.90
26537;DHT22;14204;51.262;5.488;2023-07-08T05:37:58;20.10;99.90
26537;DHT22;14204;51.262;5.488;2023-07-08T05:40:24;20.10;99.90
26537;DHT22;14204;51.262;5.488;2023-07-08T05:42:50;20.20;99.90
26537;DHT22;14204;51.262;5.488;2023-07-08T05:45:15;20.20;99.90
26537;DHT22;14204;51.262;5.488;2023-07-08T05:47:41;20.20;99.90
26537;DHT22;14204;51.262;5.488;2023-07-08T05:50:07;20.10;99.90
26537;DHT22;14204;51.262;5.488;2023-07-08T05:52:33;20.20;99.90
26537;DHT22;14204;51.262;5.488;2023-07-08T05:54:58;20.20;99.90
26537;DHT22;14204;51.262;5.488;2023-07-08T05:57:24;20.20;99.90
26537;DHT22;14204;51.262;5.488;2023-07-08T05:59:51;20.20;99.90
26537;DHT22;14204;51.262;5.488;2023-07-08T06:02:17;20.30;99.90
26537;DHT22;14204;51.262;5.488;2023-07-08T06:04:44;20.30;99.90
26537;DHT22;14204;51.262;5.488;2023-07-08T06:07:10;20.30;99.90
26537;DHT22;14204;51.262;5.488;2023-07-08T06:09:36;20.30;99.90
26537;DHT22;14204;51.262;5.488;2023-07-08T06:12:02;20.30;99.90
26537;DHT22;14204;51.262;5.488;2023-07-08T06:14:28;20.40;99.90
26537;DHT22;14204;51.262;5.488;2023-07-08T06:16:53;20.40;99.90
26537;DHT22;14204;51.262;5.488;2023-07-08T06:19:20;20.40;99.90
26537;DHT22;14204;51.262;5.488;2023-07-08T06:21:46;20.40;99.90
26537;DHT22;14204;51.262;5.488;2023-07-08T06:24:12;20.50;99.90
26537;DHT22;14204;51.262;5.488;2023-07-08T06:26:37;20.60;99.90
26537;DHT22;14204;51.262;5.488;2023-07-08T06:29:03;20.70;99.90
26537;DHT22;14204;51.262;5.488;2023-07-08T06:31:30;20.80;99.90
26537;DHT22;14204;51.262;5.488;2023-07-08T06:33:55;20.80;99.90
26537;DHT22;14204;51.262;5.488;2023-07-08T06:36:21;20.90;99.90
26537;DHT22;14204;51.262;5.488;2023-07-08T06:38:48;20.80;99.90
26537;DHT22;14204;51.262;5.488;2023-07-08T06:41:14;20.90;99.90
26537;DHT22;14204;51.262;5.488;2023-07-08T06:43:40;21.00;99.90
26537;DHT22;14204;51.262;5.488;2023-07-08T06:46:05;21.20;99.90
26537;DHT22;14204;51.262;5.488;2023-07-08T06:48:32;21.20;99.90
26537;DHT22;14204;51.262;5.488;2023-07-08T06:50:58;21.40;99.90
26537;DHT22;14204;51.262;5.488;2023-07-08T06:53:24;21.50;99.90
26537;DHT22;14204;51.262;5.488;2023-07-08T06:55:50;21.50;99.90
26537;DHT22;14204;51.262;5.488;2023-07-08T06:58:16;21.60;99.90
26537;DHT22;14204;51.262;5.488;2023-07-08T07:00:45;21.70;99.90
26537;DHT22;14204;51.262;5.488;2023-07-08T07:03:12;21.80;99.90
26537;DHT22;14204;51.262;5.488;2023-07-08T07:05:39;22.00;99.90
26537;DHT22;14204;51.262;5.488;2023-07-08T07:08:05;22.20;99.90
26537;DHT22;14204;51.262;5.488;2023-07-08T07:10:32;22.40;99.90
26537;DHT22;14204;51.262;5.488;2023-07-08T07:12:58;22.60;99.90
26537;DHT22;14204;51.262;5.488;2023-07-08T07:15:24;22.90;99.90
26537;DHT22;14204;51.262;5.488;2023-07-08T07:17:50;23.10;99.90
26537;DHT22;14204;51.262;5.488;2023-07-08T07:20:16;23.20;99.90
26537;DHT22;14204;51.262;5.488;2023-07-08T07:22:42;23.30;99.90
26537;DHT22;14204;51.262;5.488;2023-07-08T07:25:07;23.50;99.90
26537;DHT22;14204;51.262;5.488;2023-07-08T07:27:33;23.60;99.90
26537;DHT22;14204;51.262;5.488;2023-07-08T07:29:59;23.70;99.90
26537;DHT22;14204;51.262;5.488;2023-07-08T07:32:26;23.80;99.90
26537;DHT22;14204;51.262;5.488;2023-07-08T07:34:52;24.00;99.90
26537;DHT22;14204;51.262;5.488;2023-07-08T07:37:20;24.10;99.90
26537;DHT22;14204;51.262;5.488;2023-07-08T07:39:46;24.30;99.90
26537;DHT22;14204;51.262;5.488;2023-07-08T07:42:13;24.40;99.90
26537;DHT22;14204;51.262;5.488;2023-07-08T07:44:39;24.50;99.90
26537;DHT22;14204;51.262;5.488;2023-07-08T07:47:08;24.50;99.90
26537;DHT22;14204;51.262;5.488;2023-07-08T07:49:35;24.70;99.90
26537;DHT22;14204;51.262;5.488;2023-07-08T07:52:01;24.90;99.90
26537;DHT22;14204;51.262;5.488;2023-07-08T07:54:27;25.10;99.90
26537;DHT22;14204;51.262;5.488;2023-07-08T07:56:52;25.20;99.90
26537;DHT22;14204;51.262;5.488;2023-07-08T07:59:18;25.40;99.90
26537;DHT22;14204;51.262;5.488;2023-07-08T08:01:44;25.50;99.90
26537;DHT22;14204;51.262;5.488;2023-07-08T08:04:10;25.70;99.90
26537;DHT22;14204;51.262;5.488;2023-07-08T08:06:36;25.80;99.90
26537;DHT22;14204;51.262;5.488;2023-07-08T08:09:03;25.90;99.90
26537;DHT22;14204;51.262;5.488;2023-07-08T08:11:29;26.10;99.90
26537;DHT22;14204;51.262;5.488;2023-07-08T08:13:56;26.40;99.90
26537;DHT22;14204;51.262;5.488;2023-07-08T08:16:22;26.30;99.90
26537;DHT22;14204;51.262;5.488;2023-07-08T08:18:48;26.30;99.90
26537;DHT22;14204;51.262;5.488;2023-07-08T08:21:13;26.40;99.90
26537;DHT22;14204;51.262;5.488;2023-07-08T08:23:39;26.50;99.90
26537;DHT22;14204;51.262;5.488;2023-07-08T08:26:05;26.60;99.90
26537;DHT22;14204;51.262;5.488;2023-07-08T08:28:31;26.80;99.90
26537;DHT22;14204;51.262;5.488;2023-07-08T08:30:56;26.90;99.90
26537;DHT22;14204;51.262;5.488;2023-07-08T08:33:22;27.00;99.90
26537;DHT22;14204;51.262;5.488;2023-07-08T08:35:48;27.10;99.90
26537;DHT22;14204;51.262;5.488;2023-07-08T08:38:14;27.30;99.90
26537;DHT22;14204;51.262;5.488;2023-07-08T08:40:41;27.30;99.90
26537;DHT22;14204;51.262;5.488;2023-07-08T08:43:13;27.30;99.90
26537;DHT22;14204;51.262;5.488;2023-07-08T08:46:04;27.60;99.90
26537;DHT22;14204;51.262;5.488;2023-07-08T08:51:15;27.80;99.90
26537;DHT22;14204;51.262;5.488;2023-07-08T08:53:41;27.90;99.90
26537;DHT22;14204;51.262;5.488;2023-07-08T08:56:34;28.10;99.90
26537;DHT22;14204;51.262;5.488;2023-07-08T09:01:38;28.40;99.90
26537;DHT22;14204;51.262;5.488;2023-07-08T09:04:13;28.60;99.90
26537;DHT22;14204;51.262;5.488;2023-07-08T09:06:43;28.80;99.90
26537;DHT22;14204;51.262;5.488;2023-07-08T09:09:42;28.90;99.90
26537;DHT22;14204;51.262;5.488;2023-07-08T09:12:18;29.10;99.90
26537;DHT22;14204;51.262;5.488;2023-07-08T09:14:46;29.20;99.90
26537;DHT22;14204;51.262;5.488;2023-07-08T09:17:32;29.30;99.90
26537;DHT22;14204;51.262;5.488;2023-07-08T09:20:15;29.50;99.90
26537;DHT22;14204;51.262;5.488;2023-07-08T09:22:43;29.70;99.90
26537;DHT22;14204;51.262;5.488;2023-07-08T09:25:24;29.80;99.90
26537;DHT22;14204;51.262;5.488;2023-07-08T09:27:50;30.00;99.90
26537;DHT22;14204;51.262;5.488;2023-07-08T09:30:21;30.00;99.90
26537;DHT22;14204;51.262;5.488;2023-07-08T09:32:48;30.00;99.90
26537;DHT22;14204;51.262;5.488;2023-07-08T09:35:38;30.30;99.90
26537;DHT22;14204;51.262;5.488;2023-07-08T09:38:11;30.60;99.90
26537;DHT22;14204;51.262;5.488;2023-07-08T09:40:38;30.90;99.90
26537;DHT22;14204;51.262;5.488;2023-07-08T09:43:27;31.00;99.90
26537;DHT22;14204;51.262;5.488;2023-07-08T09:45:58;31.00;99.90
26537;DHT22;14204;51.262;5.488;2023-07-08T09:48:28;31.20;99.90
26537;DHT22;14204;51.262;5.488;2023-07-08T09:50:56;31.30;99.90
26537;DHT22;14204;51.262;5.488;2023-07-08T09:53:22;31.40;98.20
26537;DHT22;14204;51.262;5.488;2023-07-08T09:55:49;31.30;98.40
26537;DHT22;14204;51.262;5.488;2023-07-08T09:58:36;31.40;98.10
26537;DHT22;14204;51.262;5.488;2023-07-08T10:01:11;31.60;99.70
26537;DHT22;14204;51.262;5.488;2023-07-08T10:03:38;31.80;96.10
26537;DHT22;14204;51.262;5.488;2023-07-08T10:06:17;31.80;94.80
26537;DHT22;14204;51.262;5.488;2023-07-08T10:08:44;32.00;94.40
26537;DHT22;14204;51.262;5.488;2023-07-08T10:11:29;32.10;93.80
26537;DHT22;14204;51.262;5.488;2023-07-08T10:14:10;32.20;95.30
26537;DHT22;14204;51.262;5.488;2023-07-08T10:16:36;32.30;96.50
26537;DHT22;14204;51.262;5.488;2023-07-08T10:19:16;32.30;94.10
26537;DHT22;14204;51.262;5.488;2023-07-08T10:21:48;32.40;93.90
26537;DHT22;14204;51.262;5.488;2023-07-08T10:24:42;32.60;91.70
26537;DHT22;14204;51.262;5.488;2023-07-08T11:05:59;33.50;88.10
26537;DHT22;14204;51.262;5.488;2023-07-08T11:08:35;33.60;88.00
26537;DHT22;14204;51.262;5.488;2023-07-08T11:11:14;33.80;91.30
26537;DHT22;14204;51.262;5.488;2023-07-08T11:13:57;33.60;89.60
26537;DHT22;14204;51.262;5.488;2023-07-08T11:19:17;33.70;88.00
26537;DHT22;14204;51.262;5.488;2023-07-08T11:21:48;33.90;90.60
26537;DHT22;14204;51.262;5.488;2023-07-08T11:27:28;34.10;87.50
26537;DHT22;14204;51.262;5.488;2023-07-08T11:30:02;34.30;90.60
26537;DHT22;14204;51.262;5.488;2023-07-08T11:32:31;34.30;87.30
26537;DHT22;14204;51.262;5.488;2023-07-08T11:34:59;34.30;87.00
26537;DHT22;14204;51.262;5.488;2023-07-08T11:37:26;34.50;88.20
26537;DHT22;14204;51.262;5.488;2023-07-08T11:44:59;34.40;87.70
26537;DHT22;14204;51.262;5.488;2023-07-08T11:50:00;34.50;87.50
26537;DHT22;14204;51.262;5.488;2023-07-08T11:52:29;34.50;89.10
26537;DHT22;14204;51.262;5.488;2023-07-08T11:55:00;34.60;84.90
26537;DHT22;14204;51.262;5.488;2023-07-08T11:57:30;34.60;83.40
26537;DHT22;14204;51.262;5.488;2023-07-08T12:00:19;34.30;85.20
26537;DHT22;14204;51.262;5.488;2023-07-08T12:02:57;34.60;85.70
26537;DHT22;14204;51.262;5.488;2023-07-08T12:05:36;34.80;84.10
26537;DHT22;14204;51.262;5.488;2023-07-08T12:08:13;34.70;85.00
26537;DHT22;14204;51.262;5.488;2023-07-08T12:10:51;34.80;86.70
26537;DHT22;14204;51.262;5.488;2023-07-08T12:13:20;34.90;85.50
26537;DHT22;14204;51.262;5.488;2023-07-08T12:15:47;35.00;83.90
26537;DHT22;14204;51.262;5.488;2023-07-08T12:20:40;34.80;83.70
26537;DHT22;14204;51.262;5.488;2023-07-08T12:23:19;34.80;81.30
26537;DHT22;14204;51.262;5.488;2023-07-08T12:25:47;35.10;82.30
26537;DHT22;14204;51.262;5.488;2023-07-08T12:28:14;35.20;82.50
26537;DHT22;14204;51.262;5.488;2023-07-08T12:30:41;35.30;82.20
26537;DHT22;14204;51.262;5.488;2023-07-08T12:33:30;35.40;84.40
26537;DHT22;14204;51.262;5.488;2023-07-08T12:36:00;35.50;80.90
26537;DHT22;14204;51.262;5.488;2023-07-08T12:38:32;35.40;77.20
26537;DHT22;14204;51.262;5.488;2023-07-08T12:41:01;35.40;79.90
26537;DHT22;14204;51.262;5.488;2023-07-08T12:43:27;35.50;80.50
26537;DHT22;14204;51.262;5.488;2023-07-08T12:45:53;35.50;80.40
26537;DHT22;14204;51.262;5.488;2023-07-08T12:48:18;35.20;76.50
26537;DHT22;14204;51.262;5.488;2023-07-08T12:50:44;35.40;82.60
26537;DHT22;14204;51.262;5.488;2023-07-08T12:53:10;35.40;80.50
26537;DHT22;14204;51.262;5.488;2023-07-08T12:55:39;35.50;73.20
26537;DHT22;14204;51.262;5.488;2023-07-08T12:58:07;35.40;82.10
26537;DHT22;14204;51.262;5.488;2023-07-08T13:00:39;35.50;80.80
26537;DHT22;14204;51.262;5.488;2023-07-08T13:03:14;35.40;79.00
26537;DHT22;14204;51.262;5.488;2023-07-08T13:05:41;35.50;73.60
26537;DHT22;14204;51.262;5.488;2023-07-08T13:08:11;35.40;76.30
26537;DHT22;14204;51.262;5.488;2023-07-08T13:10:38;35.50;73.90
26537;DHT22;14204;51.262;5.488;2023-07-08T13:13:07;35.50;79.00
26537;DHT22;14204;51.262;5.488;2023-07-08T13:15:36;35.50;78.40
26537;DHT22;14204;51.262;5.488;2023-07-08T13:18:05;35.40;75.00
26537;DHT22;14204;51.262;5.488;2023-07-08T13:20:34;35.70;78.70
26537;DHT22;14204;51.262;5.488;2023-07-08T13:23:01;35.60;80.00
26537;DHT22;14204;51.262;5.488;2023-07-08T13:25:29;35.60;75.90
26537;DHT22;14204;51.262;5.488;2023-07-08T13:28:18;35.60;78.70
26537;DHT22;14204;51.262;5.488;2023-07-08T13:30:56;35.50;75.40
26537;DHT22;14204;51.262;5.488;2023-07-08T13:33:22;35.50;77.80
26537;DHT22;14204;51.262;5.488;2023-07-08T13:35:50;35.60;78.40
26537;DHT22;14204;51.262;5.488;2023-07-08T13:38:22;35.80;77.40
26537;DHT22;14204;51.262;5.488;2023-07-08T13:40:53;35.70;75.70
26537;DHT22;14204;51.262;5.488;2023-07-08T13:43:27;35.80;79.90
26537;DHT22;14204;51.262;5.488;2023-07-08T13:45:53;35.70;77.30
26537;DHT22;14204;51.262;5.488;2023-07-08T13:48:37;35.70;81.60
26537;DHT22;14204;51.262;5.488;2023-07-08T13:51:07;35.40;77.00
26537;DHT22;14204;51.262;5.488;2023-07-08T13:53:58;35.50;77.70
26537;DHT22;14204;51.262;5.488;2023-07-08T13:56:35;35.30;79.10
26537;DHT22;14204;51.262;5.488;2023-07-08T13:59:07;35.30;77.90
26537;DHT22;14204;51.262;5.488;2023-07-08T14:01:33;35.20;81.70
26537;DHT22;14204;51.262;5.488;2023-07-08T14:04:00;35.10;77.80
26537;DHT22;14204;51.262;5.488;2023-07-08T14:06:32;35.10;82.20
26537;DHT22;14204;51.262;5.488;2023-07-08T14:09:03;34.90;83.70
26537;DHT22;14204;51.262;5.488;2023-07-08T14:11:29;34.70;85.00
26537;DHT22;14204;51.262;5.488;2023-07-08T14:13:55;34.40;85.50
26537;DHT22;14204;51.262;5.488;2023-07-08T14:16:26;34.20;80.10
26537;DHT22;14204;51.262;5.488;2023-07-08T14:18:57;34.00;88.40
26537;DHT22;14204;51.262;5.488;2023-07-08T14:21:23;33.90;84.30
26537;DHT22;14204;51.262;5.488;2023-07-08T14:23:49;33.90;87.40
26537;DHT22;14204;51.262;5.488;2023-07-08T14:26:15;33.70;89.70
26537;DHT22;14204;51.262;5.488;2023-07-08T14:28:41;33.60;90.30
26537;DHT22;14204;51.262;5.488;2023-07-08T14:31:10;33.40;92.10
26537;DHT22;14204;51.262;5.488;2023-07-08T14:33:37;33.20;93.20
26537;DHT22;14204;51.262;5.488;2023-07-08T14:36:10;33.10;92.90
26537;DHT22;14204;51.262;5.488;2023-07-08T14:38:36;33.20;94.40
26537;DHT22;14204;51.262;5.488;2023-07-08T14:41:02;33.30;92.90
26537;DHT22;14204;51.262;5.488;2023-07-08T14:43:30;33.20;91.10
26537;DHT22;14204;51.262;5.488;2023-07-08T14:45:59;33.10;95.70
26537;DHT22;14204;51.262;5.488;2023-07-08T14:48:29;33.10;95.40
26537;DHT22;14204;51.262;5.488;2023-07-08T14:50:55;33.00;90.00
26537;DHT22;14204;51.262;5.488;2023-07-08T14:53:21;33.10;87.90
26537;DHT22;14204;51.262;5.488;2023-07-08T14:55:49;33.20;95.60
26537;DHT22;14204;51.262;5.488;2023-07-08T14:58:25;32.90;92.80
26537;DHT22;14204;51.262;5.488;2023-07-08T15:00:54;32.90;96.60
26537;DHT22;14204;51.262;5.488;2023-07-08T15:03:20;32.80;97.50
26537;DHT22;14204;51.262;5.488;2023-07-08T15:05:46;32.80;98.00
26537;DHT22;14204;51.262;5.488;2023-07-08T15:08:12;32.80;97.90
26537;DHT22;14204;51.262;5.488;2023-07-08T15:10:39;32.50;98.90
26537;DHT22;14204;51.262;5.488;2023-07-08T15:13:09;32.50;99.50
26537;DHT22;14204;51.262;5.488;2023-07-08T15:15:35;32.40;99.90
26537;DHT22;14204;51.262;5.488;2023-07-08T15:18:09;32.40;99.90
26537;DHT22;14204;51.262;5.488;2023-07-08T15:20:36;32.40;99.90
26537;DHT22;14204;51.262;5.488;2023-07-08T15:23:01;32.40;99.90
26537;DHT22;14204;51.262;5.488;2023-07-08T15:25:27;32.40;99.90
26537;DHT22;14204;51.262;5.488;2023-07-08T15:27:56;32.40;99.90
26537;DHT22;14204;51.262;5.488;2023-07-08T15:30:27;32.40;99.90
26537;DHT22;14204;51.262;5.488;2023-07-08T15:32:53;32.40;99.90
26537;DHT22;14204;51.262;5.488;2023-07-08T15:35:24;32.40;99.90
26537;DHT22;14204;51.262;5.488;2023-07-08T15:37:51;32.40;99.90
26537;DHT22;14204;51.262;5.488;2023-07-08T15:40:20;32.40;99.90
26537;DHT22;14204;51.262;5.488;2023-07-08T15:42:49;32.30;99.90
26537;DHT22;14204;51.262;5.488;2023-07-08T15:45:28;32.20;99.90
26537;DHT22;14204;51.262;5.488;2023-07-08T15:47:55;32.30;99.90
26537;DHT22;14204;51.262;5.488;2023-07-08T15:50:24;32.30;99.90
26537;DHT22;14204;51.262;5.488;2023-07-08T15:52:51;32.20;99.90
26537;DHT22;14204;51.262;5.488;2023-07-08T15:55:22;32.40;99.80
26537;DHT22;14204;51.262;5.488;2023-07-08T16:00:25;32.40;99.90
26537;DHT22;14204;51.262;5.488;2023-07-08T16:03:01;32.40;99.90
26537;DHT22;14204;51.262;5.488;2023-07-08T16:05:28;32.30;99.90
26537;DHT22;14204;51.262;5.488;2023-07-08T16:07:55;32.30;96.80
26537;DHT22;14204;51.262;5.488;2023-07-08T16:10:23;32.40;96.80
26537;DHT22;14204;51.262;5.488;2023-07-08T16:12:51;32.40;98.10
26537;DHT22;14204;51.262;5.488;2023-07-08T16:15:26;32.20;99.90
26537;DHT22;14204;51.262;5.488;2023-07-08T16:17:52;32.10;99.90
26537;DHT22;14204;51.262;5.488;2023-07-08T16:20:21;32.00;99.90
26537;DHT22;14204;51.262;5.488;2023-07-08T16:22:47;31.90;99.90
26537;DHT22;14204;51.262;5.488;2023-07-08T16:25:18;31.80;99.90
26537;DHT22;14204;51.262;5.488;2023-07-08T16:27:47;31.80;99.90
26537;DHT22;14204;51.262;5.488;2023-07-08T16:30:19;31.80;99.90
26537;DHT22;14204;51.262;5.488;2023-07-08T16:32:46;31.90;99.90
26537;DHT22;14204;51.262;5.488;2023-07-08T16:35:14;31.90;99.90
26537;DHT22;14204;51.262;5.488;2023-07-08T16:37:39;31.80;99.90
26537;DHT22;14204;51.262;5.488;2023-07-08T16:40:13;31.80;99.90
26537;DHT22;14204;51.262;5.488;2023-07-08T16:42:40;31.80;99.90
26537;DHT22;14204;51.262;5.488;2023-07-08T16:45:11;31.80;99.90
26537;DHT22;14204;51.262;5.488;2023-07-08T16:47:37;32.00;99.90
26537;DHT22;14204;51.262;5.488;2023-07-08T16:50:03;32.10;99.90
26537;DHT22;14204;51.262;5.488;2023-07-08T16:52:30;32.40;99.70
26537;DHT22;14204;51.262;5.488;2023-07-08T16:54:57;32.50;97.70
26537;DHT22;14204;51.262;5.488;2023-07-08T16:57:23;32.50;96.10